Time;durP1;ratioP1;P1;durP2;ratioP2;P2;SDS_P1;SDS_P2;PMS_P1;PMS_P2;Temp;Humidity;BMP_temperature;BMP_pressure;BME280_temperature;BME280_humidity;BME280_pressure;Samples;Min_cycle;Max_cycle;Signal;HPM_P1;HPM_P2
2022/11/20 00:01:16;;;;;;;11.03;8.38;;;;;;;-1.05;100.00;100042.50;1759458;80;21485;-63
2022/11/20 00:03:45;;;;;;;10.70;8.38;;;;;;;-1.09;100.00;100047.19;1757903;80;21518;-63
2022/11/20 00:06:15;;;;;;;11.45;9.03;;;;;;;-1.14;100.00;100052.72;1760982;79;21585;-63
2022/11/20 00:08:42;;;;;;;10.35;8.90;;;;;;;-1.15;100.00;100052.70;1757801;80;21588;-64
2022/11/20 00:11:19;;;;;;;12.78;9.50;;;;;;;-1.19;100.00;100041.07;1769157;79;21824;-63
2022/11/20 00:13:48;;;;;;;11.07;9.03;;;;;;;-1.20;100.00;100048.79;1766652;79;21568;-63
2022/11/20 00:16:18;;;;;;;12.13;9.95;;;;;;;-1.18;100.00;100047.09;1757142;80;21565;-63
2022/11/20 00:18:46;;;;;;;11.48;8.95;;;;;;;-1.15;100.00;100041.09;1752495;80;21535;-63
2022/11/20 00:21:17;;;;;;;12.60;9.65;;;;;;;-1.12;100.00;100047.58;1756201;80;21521;-63
2022/11/20 00:23:44;;;;;;;13.93;9.08;;;;;;;-1.13;100.00;100053.17;1751893;80;21510;-63
2022/11/20 00:26:16;;;;;;;14.83;8.80;;;;;;;-1.13;100.00;100062.61;1759541;80;21490;-63
2022/11/20 00:28:46;;;;;;;13.05;9.23;;;;;;;-1.12;100.00;100065.22;1759036;80;21589;-63
2022/11/20 00:31:14;;;;;;;14.65;9.85;;;;;;;-1.08;100.00;100073.86;1745188;80;21644;-63
2022/11/20 00:33:42;;;;;;;13.93;9.53;;;;;;;-1.05;100.00;100084.23;1754677;80;21426;-63
2022/11/20 00:36:11;;;;;;;11.57;9.33;;;;;;;-1.07;100.00;100075.61;1764009;80;21982;-63
2022/11/20 00:38:38;;;;;;;13.22;10.15;;;;;;;-1.15;100.00;100075.48;1764020;80;21490;-63
2022/11/20 00:41:07;;;;;;;11.67;9.30;;;;;;;-1.21;100.00;100085.75;1760169;80;21010;-63
2022/11/20 00:43:34;;;;;;;10.82;8.05;;;;;;;-1.27;100.00;100083.10;1764299;80;21014;-62
2022/11/20 00:46:09;;;;;;;12.43;9.75;;;;;;;-1.30;100.00;100077.49;1754115;80;21124;-63
2022/11/20 00:48:36;;;;;;;12.00;8.80;;;;;;;-1.33;100.00;100074.86;1745879;80;21817;-63
2022/11/20 00:51:03;;;;;;;11.63;9.35;;;;;;;-1.38;100.00;100073.50;1760255;80;21037;-63
2022/11/20 00:53:31;;;;;;;11.65;9.08;;;;;;;-1.34;100.00;100084.72;1723034;82;21504;-63
2022/11/20 00:56:00;;;;;;;11.93;8.75;;;;;;;-1.30;100.00;100083.94;1750410;80;21545;-64
2022/11/20 00:58:32;;;;;;;11.93;8.95;;;;;;;-1.29;100.00;100076.62;1751914;80;21541;-62
2022/11/20 01:01:24;;;;;;;12.90;9.93;;;;;;;-1.28;100.00;100062.89;1751736;80;21860;-63
2022/11/20 01:03:54;;;;;;;10.93;8.20;;;;;;;-1.27;100.00;100056.87;1752323;80;21557;-64
2022/11/20 01:06:30;;;;;;;11.75;9.43;;;;;;;-1.28;100.00;100055.55;1746587;80;21604;-64
2022/11/20 01:08:58;;;;;;;11.38;9.10;;;;;;;-1.25;100.00;100057.75;1751238;80;20987;-64
2022/11/20 01:11:28;;;;;;;13.50;10.25;;;;;;;-1.21;100.00;100057.36;1751486;80;21521;-64
2022/11/20 01:13:55;;;;;;;14.95;9.25;;;;;;;-1.19;100.00;100063.00;1766772;80;21805;-64
2022/11/20 01:16:31;;;;;;;12.73;9.03;;;;;;;-1.15;100.00;100061.73;1764595;79;21599;-62
2022/11/20 01:19:00;;;;;;;14.83;9.65;;;;;;;-1.17;100.00;100060.41;1758915;79;21147;-63
2022/11/20 01:21:34;;;;;;;14.50;10.08;;;;;;;-1.19;100.00;100061.72;1763717;80;21479;-63
2022/11/20 01:24:01;;;;;;;15.83;10.75;;;;;;;-1.15;100.00;100055.28;1758481;79;21528;-64
2022/11/20 01:26:34;;;;;;;13.85;9.78;;;;;;;-1.11;100.00;100051.88;1752443;79;21788;-63
2022/11/20 01:29:01;;;;;;;12.10;9.98;;;;;;;-1.11;100.00;100054.05;1762771;79;21606;-62
2022/11/20 01:31:30;;;;;;;13.28;9.73;;;;;;;-1.11;100.00;100057.04;1758630;80;21463;-62
2022/11/20 01:34:00;;;;;;;16.02;10.28;;;;;;;-1.15;100.00;100052.27;1752179;80;21486;-62
2022/11/20 01:36:29;;;;;;;11.60;9.05;;;;;;;-1.12;100.00;100051.02;1767361;80;21592;-61
2022/11/20 01:39:02;;;;;;;10.98;8.30;;;;;;;-1.13;100.00;100054.86;1764551;79;21783;-62
2022/11/20 01:44:17;;;;;;;12.07;9.20;;;;;;;-1.24;100.00;100055.62;1769000;79;21435;-61
2022/11/20 01:47:01;;;;;;;15.20;9.45;;;;;;;-1.23;100.00;100065.08;1755455;79;21469;-62
2022/11/20 01:49:40;;;;;;;12.15;8.75;;;;;;;-1.18;100.00;100065.16;1760522;79;21486;-62
2022/11/20 01:52:18;;;;;;;14.73;9.83;;;;;;;-1.13;100.00;100071.64;1759636;79;21857;-61
2022/11/20 01:55:09;;;;;;;13.28;8.98;;;;;;;-1.10;100.00;100083.30;1748208;80;21403;-61
2022/11/20 01:57:37;;;;;;;13.15;9.58;;;;;;;-1.05;100.00;100093.27;1760691;79;21454;-62
2022/11/20 02:00:10;;;;;;;16.97;11.65;;;;;;;-1.01;100.00;100097.17;1736313;80;21506;-62
2022/11/20 02:02:44;;;;;;;15.30;11.20;;;;;;;-0.96;100.00;100097.24;1751777;80;21691;-63
2022/11/20 02:05:22;;;;;;;13.98;11.68;;;;;;;-0.93;100.00;100095.11;1759994;79;21777;-62
2022/11/20 02:07:49;;;;;;;16.32;11.83;;;;;;;-0.91;100.00;100096.84;1761293;79;21559;-61
2022/11/20 02:10:15;;;;;;;16.95;13.18;;;;;;;-0.88;100.00;100093.45;1761932;79;20943;-62
2022/11/20 02:15:27;;;;;;;16.15;11.68;;;;;;;-0.87;100.00;100093.44;1740690;80;21040;-61
2022/11/20 02:17:54;;;;;;;18.20;12.70;;;;;;;-0.86;100.00;100094.33;1759636;80;22119;-62
2022/11/20 02:20:21;;;;;;;18.30;12.45;;;;;;;-0.85;100.00;100096.05;1746284;80;21058;-63
2022/11/20 02:23:20;;;;;;;18.02;12.73;;;;;;;-0.84;100.00;100103.81;1754577;80;21483;-66
2022/11/20 02:25:47;;;;;;;17.00;13.20;;;;;;;-0.83;100.00;100112.02;1685491;83;21473;-63
2022/11/20 02:28:13;;;;;;;16.82;12.55;;;;;;;-0.84;100.00;100103.81;1720436;80;21565;-64
2022/11/20 02:30:40;;;;;;;17.03;13.10;;;;;;;-0.84;100.00;100101.23;1752423;80;21630;-63
2022/11/20 02:33:07;;;;;;;20.05;13.55;;;;;;;-0.80;100.00;100100.41;1746713;80;21739;-63
2022/11/20 02:35:39;;;;;;;13.73;9.47;;;;;;;-0.75;100.00;100095.71;1738256;80;21521;-63
2022/11/20 02:38:06;;;;;;;17.50;12.30;;;;;;;-0.77;100.00;100094.43;1737177;80;21502;-63
2022/11/20 02:40:32;;;;;;;16.35;11.83;;;;;;;-0.75;100.00;100101.77;1752706;80;21494;-63
2022/11/20 02:42:59;;;;;;;17.80;13.38;;;;;;;-0.72;100.00;100099.62;1753220;80;21812;-63
2022/11/20 02:45:25;;;;;;;18.50;13.58;;;;;;;-0.71;100.00;100092.34;1749384;80;21534;-63
2022/11/20 02:47:53;;;;;;;17.27;13.08;;;;;;;-0.69;100.00;100101.82;1749414;80;21562;-63
2022/11/20 02:50:20;;;;;;;15.50;11.10;;;;;;;-0.67;100.00;100091.52;1744803;80;21502;-63
2022/11/20 02:52:47;;;;;;;15.10;12.03;;;;;;;-0.67;100.00;100093.66;1754997;80;21589;-63
2022/11/20 02:55:13;;;;;;;15.55;12.60;;;;;;;-0.66;100.00;100096.70;1745211;80;21804;-63
2022/11/20 02:57:40;;;;;;;15.90;11.57;;;;;;;-0.65;100.00;100109.17;1752294;80;21463;-63
2022/11/20 03:00:09;;;;;;;13.37;11.03;;;;;;;-0.65;100.00;100115.63;1749656;80;21428;-63
2022/11/20 03:02:36;;;;;;;14.30;11.38;;;;;;;-0.64;100.00;100109.60;1745263;80;21973;-63
2022/11/20 03:05:03;;;;;;;15.18;11.10;;;;;;;-0.65;100.00;100110.03;1750937;80;21541;-63
2022/11/20 03:07:30;;;;;;;13.62;10.93;;;;;;;-0.66;100.00;100101.86;1756182;80;21447;-63
2022/11/20 03:09:57;;;;;;;13.10;10.50;;;;;;;-0.68;100.00;100110.42;1744855;80;21435;-63
2022/11/20 03:12:24;;;;;;;14.63;11.05;;;;;;;-0.70;100.00;100115.56;1738693;80;21573;-63
2022/11/20 03:14:51;;;;;;;16.52;12.13;;;;;;;-0.69;100.00;100115.17;1756498;80;21570;-63
2022/11/20 03:17:18;;;;;;;14.55;11.22;;;;;;;-0.68;100.00;100107.84;1751455;80;21592;-63
2022/11/20 03:19:46;;;;;;;13.43;11.20;;;;;;;-0.69;100.00;100112.15;1753018;80;21214;-63
2022/11/20 03:22:12;;;;;;;14.93;11.38;;;;;;;-0.70;100.00;100127.19;1754255;80;21510;-63
2022/11/20 03:24:39;;;;;;;16.02;11.53;;;;;;;-0.72;100.00;100123.73;1754902;80;21451;-64
2022/11/20 03:27:06;;;;;;;16.30;11.17;;;;;;;-0.73;100.00;100128.47;1762039;80;21466;-66
2022/11/20 03:29:33;;;;;;;14.80;11.57;;;;;;;-0.74;100.00;100129.73;1765491;80;21498;-63
2022/11/20 03:31:59;;;;;;;19.45;12.18;;;;;;;-0.74;100.00;100138.78;1727650;80;21891;-63
2022/11/20 03:34:26;;;;;;;16.42;11.48;;;;;;;-0.72;100.00;100136.64;1761305;80;21486;-63
2022/11/20 03:36:52;;;;;;;16.82;11.95;;;;;;;-0.76;100.00;100133.59;1763891;80;21485;-63
2022/11/20 03:39:19;;;;;;;16.48;11.88;;;;;;;-0.76;100.00;100136.17;1754176;80;21598;-63
2022/11/20 03:41:45;;;;;;;19.07;12.07;;;;;;;-0.75;100.00;100133.16;1756533;80;21069;-63
2022/11/20 03:44:12;;;;;;;16.80;12.70;;;;;;;-0.75;100.00;100126.70;1748853;80;21813;-63
2022/11/20 03:46:39;;;;;;;18.07;11.93;;;;;;;-0.73;100.00;100117.28;1759872;80;21631;-64
2022/11/20 03:49:06;;;;;;;14.75;12.00;;;;;;;-0.73;100.00;100121.16;1752405;80;21542;-64
2022/11/20 03:51:35;;;;;;;16.20;11.53;;;;;;;-0.73;100.00;100119.43;1761838;80;21565;-63
2022/11/20 03:54:05;;;;;;;15.48;11.75;;;;;;;-0.73;100.00;100118.14;1755372;80;21549;-63
2022/11/20 03:56:36;;;;;;;16.30;11.78;;;;;;;-0.70;100.00;100118.58;1760988;80;21921;-63
2022/11/20 03:59:03;;;;;;;15.03;11.45;;;;;;;-0.69;100.00;100117.75;1757368;80;21581;-63
2022/11/20 04:01:36;;;;;;;13.93;10.95;;;;;;;-0.70;100.00;100112.13;1760478;80;21470;-63
2022/11/20 04:04:03;;;;;;;14.70;10.88;;;;;;;-0.67;100.00;100113.47;1761542;80;21522;-64
2022/11/20 04:06:34;;;;;;;16.07;11.33;;;;;;;-0.64;100.00;100113.07;1757356;80;21431;-65
2022/11/20 04:09:01;;;;;;;15.32;11.05;;;;;;;-0.61;100.00;100110.50;1756095;80;21957;-65
2022/11/20 04:11:31;;;;;;;13.85;10.95;;;;;;;-0.64;100.00;100109.60;1764197;80;21508;-62
2022/11/20 04:14:00;;;;;;;13.38;10.53;;;;;;;-0.66;100.00;100101.86;1751946;80;21088;-62
2022/11/20 04:16:29;;;;;;;15.83;11.08;;;;;;;-0.68;100.00;100097.11;1750996;80;21530;-62
2022/11/20 04:18:58;;;;;;;15.72;10.95;;;;;;;-0.67;100.00;100096.67;1740175;80;21439;-62
2022/11/20 04:21:25;;;;;;;15.50;11.10;;;;;;;-0.64;100.00;100099.27;1749823;80;21879;-63
2022/11/20 04:23:55;;;;;;;15.88;11.03;;;;;;;-0.63;100.00;100092.83;1754983;80;21668;-63
2022/11/20 04:26:25;;;;;;;13.60;10.30;;;;;;;-0.60;100.00;100096.75;1751168;80;21587;-63
2022/11/20 04:28:51;;;;;;;12.70;10.08;;;;;;;-0.56;100.00;100089.90;1759075;80;21108;-62
2022/11/20 04:31:21;;;;;;;15.53;11.30;;;;;;;-0.52;100.00;100090.36;1754451;80;21495;-63
2022/11/20 04:33:48;;;;;;;14.70;11.20;;;;;;;-0.54;100.00;100095.09;1746012;80;21743;-62
2022/11/20 04:36:19;;;;;;;16.40;11.78;;;;;;;-0.70;100.00;100090.17;1743297;80;21490;-63
2022/11/20 04:38:46;;;;;;;12.55;10.05;;;;;;;-0.81;100.00;100081.02;1756529;80;20983;-63
2022/11/20 04:41:18;;;;;;;16.45;11.93;;;;;;;-0.84;100.00;100079.28;1746965;80;21542;-63
2022/11/20 04:43:49;;;;;;;14.63;11.03;;;;;;;-0.84;100.00;100062.50;1755242;80;21541;-64
2022/11/20 04:46:16;;;;;;;13.08;11.12;;;;;;;-0.90;100.00;100059.87;1749088;80;21936;-64
2022/11/20 04:48:44;;;;;;;15.50;11.63;;;;;;;-0.92;100.00;100051.25;1744006;80;21471;-64
2022/11/20 04:51:10;;;;;;;14.05;11.00;;;;;;;-0.89;100.00;100049.96;1758429;80;21447;-63
2022/11/20 04:53:39;;;;;;;14.78;10.88;;;;;;;-0.91;100.00;100041.34;1756053;80;21060;-65
2022/11/20 04:56:07;;;;;;;13.38;10.98;;;;;;;-0.92;100.00;100039.63;1749678;80;21561;-65
2022/11/20 04:58:35;;;;;;;15.00;11.43;;;;;;;-0.92;100.00;100032.28;1754850;80;21538;-63
2022/11/20 05:01:05;;;;;;;14.50;11.20;;;;;;;-0.93;100.00;100031.86;1742188;80;21661;-64
2022/11/20 05:03:33;;;;;;;17.80;12.18;;;;;;;-0.94;100.00;100029.71;1747273;80;21739;-64
2022/11/20 05:06:03;;;;;;;15.05;11.43;;;;;;;-0.90;100.00;100028.89;1757063;80;21599;-64
2022/11/20 05:08:30;;;;;;;17.32;12.07;;;;;;;-0.87;100.00;100039.66;1740464;80;21574;-65
2022/11/20 05:11:02;;;;;;;;;;;;;;;-0.87;100.00;100031.48;1748788;80;21870;-63
2022/11/20 05:13:29;;;;;;;13.20;9.95;;;;;;;-0.97;100.00;100035.27;1663612;83;20414;-62
2022/11/20 05:16:05;;;;;;;17.30;12.03;;;;;;;-0.99;100.00;100030.94;1755478;80;21636;-62
2022/11/20 05:18:33;;;;;;;13.83;10.90;;;;;;;-1.00;100.00;100027.05;1755028;80;21518;-62
2022/11/20 05:21:01;;;;;;;16.23;11.93;;;;;;;-1.10;100.00;100039.42;1734489;80;21597;-63
2022/11/20 05:23:30;;;;;;;16.48;11.73;;;;;;;-1.10;100.00;100040.28;1749911;80;21691;-64
2022/11/20 05:25:57;;;;;;;16.10;13.05;;;;;;;-1.08;100.00;100045.47;1740411;80;21532;-63
2022/11/20 05:28:24;;;;;;;13.70;10.55;;;;;;;-1.07;100.00;100035.60;1745838;80;21546;-63
2022/11/20 05:30:50;;;;;;;14.33;11.30;;;;;;;-1.06;100.00;100031.72;1750754;80;21011;-62
2022/11/20 05:33:17;;;;;;;14.20;11.75;;;;;;;-0.97;100.00;100016.77;1751740;80;21476;-63
2022/11/20 05:35:44;;;;;;;13.32;10.50;;;;;;;-0.89;100.00;100012.53;1744979;80;22002;-63
2022/11/20 05:38:10;;;;;;;16.40;11.90;;;;;;;-0.81;100.00;100021.63;1743615;80;21471;-63
2022/11/20 05:40:38;;;;;;;16.82;11.60;;;;;;;-0.73;100.00;100021.30;1741702;80;21494;-62
2022/11/20 05:43:05;;;;;;;14.40;10.70;;;;;;;-0.66;100.00;100019.63;1753501;80;21491;-63
2022/11/20 05:45:33;;;;;;;15.13;11.43;;;;;;;-0.62;100.00;100022.27;1756936;80;21549;-62
2022/11/20 05:48:00;;;;;;;15.35;11.20;;;;;;;-0.59;100.00;100018.39;1749549;80;21813;-63
2022/11/20 05:50:28;;;;;;;14.68;10.78;;;;;;;-0.51;100.00;100021.47;1752455;80;21522;-62
2022/11/20 05:52:57;;;;;;;12.95;10.60;;;;;;;-0.43;100.00;100028.44;1750365;80;21557;-63
2022/11/20 05:55:23;;;;;;;17.15;11.73;;;;;;;-0.37;100.00;100030.64;1735016;80;21573;-62
2022/11/20 05:57:50;;;;;;;17.25;11.48;;;;;;;-0.35;100.00;100024.63;1753834;80;21435;-63
2022/11/20 06:00:18;;;;;;;13.45;10.58;;;;;;;-0.34;100.00;100025.48;1754705;80;22019;-63
2022/11/20 06:02:44;;;;;;;16.32;12.53;;;;;;;-0.32;100.00;100037.98;1725111;80;21550;-64
2022/11/20 06:05:11;;;;;;;15.28;11.68;;;;;;;-0.31;100.00;100035.85;1756230;80;21490;-65
2022/11/20 06:07:38;;;;;;;16.60;11.75;;;;;;;-0.30;100.00;100032.39;1751584;80;21435;-58
2022/11/20 06:10:06;;;;;;;15.68;12.10;;;;;;;-0.21;100.00;100029.48;1755139;80;21089;-59
2022/11/20 06:12:33;;;;;;;16.25;12.05;;;;;;;-0.13;100.00;100041.16;1753238;80;21876;-57
2022/11/20 06:15:00;;;;;;;15.65;12.20;;;;;;;-0.05;100.00;100043.36;1744307;80;21037;-58
2022/11/20 06:17:27;;;;;;;17.37;11.85;;;;;;;-0.01;100.00;100047.69;1736275;80;21688;-58
2022/11/20 06:19:54;;;;;;;18.02;12.05;;;;;;;0.04;100.00;100038.69;1755353;80;21050;-57
2022/11/20 06:22:21;;;;;;;16.45;11.97;;;;;;;0.06;100.00;100027.92;1750797;80;21470;-58
2022/11/20 06:24:48;;;;;;;18.25;13.32;;;;;;;0.11;100.00;100033.96;1743507;80;21818;-57
2022/11/20 06:27:15;;;;;;;18.52;13.05;;;;;;;0.18;100.00;100028.41;1748351;80;20911;-58
2022/11/20 06:29:42;;;;;;;17.70;13.40;;;;;;;0.25;100.00;100021.13;1743846;80;21511;-58
2022/11/20 06:32:09;;;;;;;15.58;12.28;;;;;;;0.31;100.00;100021.15;1755034;80;21506;-58
2022/11/20 06:34:35;;;;;;;20.12;14.33;;;;;;;0.36;100.00;100029.81;1757612;80;21139;-57
2022/11/20 06:37:02;;;;;;;18.32;13.43;;;;;;;0.41;100.00;100027.23;1746202;80;21760;-57
2022/11/20 06:39:28;;;;;;;19.67;14.23;;;;;;;0.45;100.00;100026.81;1756281;80;21546;-57
2022/11/20 06:41:55;;;;;;;18.73;13.50;;;;;;;0.48;100.00;100029.43;1751435;80;21477;-57
2022/11/20 06:44:22;;;;;;;18.87;13.60;;;;;;;0.49;100.00;100020.79;1760396;80;20979;-58
2022/11/20 06:46:50;;;;;;;19.55;13.85;;;;;;;0.51;100.00;100016.08;1756592;80;21405;-57
2022/11/20 06:49:17;;;;;;;20.37;13.78;;;;;;;0.55;100.00;100015.66;1748476;80;21809;-57
2022/11/20 06:51:44;;;;;;;21.03;13.93;;;;;;;0.59;100.00;100019.98;1756013;80;21396;-56
2022/11/20 06:54:10;;;;;;;19.60;14.50;;;;;;;0.62;100.00;100016.09;1738136;80;21636;-56
2022/11/20 06:56:38;;;;;;;20.12;13.80;;;;;;;0.66;100.00;100019.16;1751753;80;26807;-57
2022/11/20 06:59:06;;;;;;;18.57;14.78;;;;;;;0.69;100.00;100011.82;1755749;80;22152;-57
2022/11/20 07:01:34;;;;;;;20.05;14.20;;;;;;;0.73;100.00;100006.64;1749628;79;21476;-56
2022/11/20 07:04:02;;;;;;;20.92;14.20;;;;;;;0.76;100.00;100004.52;1756857;80;21580;-56
2022/11/20 07:06:30;;;;;;;18.30;13.80;;;;;;;0.78;100.00;100012.70;1759202;80;21006;-57
2022/11/20 07:08:57;;;;;;;18.57;14.90;;;;;;;0.82;100.00;100016.61;1739553;80;21514;-57
2022/11/20 07:11:25;;;;;;;19.98;14.95;;;;;;;0.85;100.00;100001.95;1735620;80;21557;-56
2022/11/20 07:13:52;;;;;;;17.62;14.35;;;;;;;0.88;100.00;99998.05;1754458;80;21898;-57
2022/11/20 07:16:18;;;;;;;19.82;15.28;;;;;;;0.93;100.00;99994.20;1755208;80;21445;-60
2022/11/20 07:18:45;;;;;;;20.82;14.98;;;;;;;0.96;100.00;99991.19;1749580;80;21461;-61
2022/11/20 07:21:14;;;;;;;22.30;16.07;;;;;;;1.01;100.00;99983.85;1748250;80;21531;-60
2022/11/20 07:23:40;;;;;;;21.77;15.53;;;;;;;1.04;100.00;99988.61;1743537;80;21108;-59
2022/11/20 07:26:09;;;;;;;21.27;15.75;;;;;;;1.04;100.00;99988.61;1749950;80;21491;-60
2022/11/20 07:28:36;;;;;;;19.60;14.98;;;;;;;1.06;100.00;99998.53;1760270;80;21502;-61
2022/11/20 07:31:03;;;;;;;22.47;15.93;;;;;;;1.14;100.00;99999.40;1752971;80;21532;-61
2022/11/20 07:33:30;;;;;;;;;;;;;;;1.19;100.00;100002.42;1754802;80;21502;-61
2022/11/20 07:35:59;;;;;;;22.32;15.53;;;;;;;1.16;100.00;99999.41;1760203;80;20153;-61
2022/11/20 07:38:26;;;;;;;21.80;15.53;;;;;;;1.18;100.00;99998.97;1752709;80;21892;-61
2022/11/20 07:40:57;;;;;;;23.07;16.75;;;;;;;1.22;100.00;99993.37;1751570;79;21553;-61
2022/11/20 07:43:25;;;;;;;20.20;16.57;;;;;;;1.24;100.00;99979.54;1738690;80;21613;-61
2022/11/20 07:45:51;;;;;;;23.18;16.55;;;;;;;1.31;100.00;99987.75;1738892;81;21450;-62
2022/11/20 07:48:18;;;;;;;23.10;15.72;;;;;;;1.36;100.00;99995.55;1736851;81;21432;-61
2022/11/20 07:50:45;;;;;;;21.57;16.42;;;;;;;1.40;100.00;99995.97;1721504;81;21956;-60
2022/11/20 07:53:13;;;;;;;24.30;17.40;;;;;;;1.44;100.00;99986.47;1727461;81;21527;-62
2022/11/20 07:55:40;;;;;;;22.32;17.00;;;;;;;1.49;100.00;99980.87;1733065;80;20959;-61
2022/11/20 07:58:07;;;;;;;22.15;16.55;;;;;;;1.54;100.00;99982.59;1723422;81;21050;-61
2022/11/20 08:00:33;;;;;;;21.80;15.48;;;;;;;1.61;100.00;99976.95;1732476;81;21491;-61
2022/11/20 08:03:06;;;;;;;19.02;14.85;;;;;;;1.66;100.00;99975.67;1724036;81;22139;-60
2022/11/20 08:05:32;;;;;;;20.55;14.58;;;;;;;1.72;100.00;99978.25;1738955;81;21511;-60
2022/11/20 08:07:59;;;;;;;19.95;15.40;;;;;;;1.77;100.00;99975.63;1732754;81;21584;-59
2022/11/20 08:10:26;;;;;;;19.35;15.13;;;;;;;1.80;100.00;99977.78;1731591;80;21507;-59
2022/11/20 08:15:40;;;;;;;18.80;15.40;;;;;;;1.86;100.00;99984.25;1736033;81;21441;-60
2022/11/20 08:18:11;;;;;;;16.90;13.90;;;;;;;1.91;100.00;99976.48;1736574;81;21049;-58
2022/11/20 08:20:38;;;;;;;19.55;14.93;;;;;;;1.92;100.00;99964.81;1692237;83;21001;-59
2022/11/20 08:23:06;;;;;;;17.45;14.30;;;;;;;1.97;100.00;99952.26;1693137;83;21501;-58
2022/11/20 08:25:33;;;;;;;;;;;;;;;1.98;100.00;99943.19;1694298;83;21504;-59
2022/11/20 08:28:07;;;;;;;17.80;14.60;;;;;;;1.96;100.00;99935.84;1691183;83;22155;-59
2022/11/20 08:30:34;;;;;;;16.17;13.83;;;;;;;1.97;100.00;99931.06;1695618;83;21506;-61
2022/11/20 08:33:03;;;;;;;16.57;12.65;;;;;;;1.99;100.00;99940.15;1687100;83;21033;-59
2022/11/20 08:35:35;;;;;;;16.37;12.53;;;;;;;2.00;100.00;99934.96;1690631;83;20997;-59
2022/11/20 08:38:03;;;;;;;18.27;13.58;;;;;;;2.02;100.00;99934.52;1665543;83;21591;-59
2022/11/20 08:40:30;;;;;;;16.30;12.85;;;;;;;1.99;100.00;99933.66;1694510;83;21859;-59
2022/11/20 08:42:56;;;;;;;18.67;13.88;;;;;;;1.96;100.00;99935.84;1695806;83;21439;-60
2022/11/20 08:45:23;;;;;;;17.50;13.48;;;;;;;1.96;100.00;99938.44;1690619;83;21470;-59
2022/11/20 08:47:50;;;;;;;18.10;13.93;;;;;;;1.97;100.00;99933.66;1684944;84;21560;-59
2022/11/20 08:50:17;;;;;;;16.65;12.35;;;;;;;2.00;100.00;99930.19;1692153;83;21736;-59
2022/11/20 08:52:45;;;;;;;14.95;12.73;;;;;;;2.01;100.00;99937.11;1690499;83;21005;-59
2022/11/20 08:55:12;;;;;;;14.87;12.17;;;;;;;2.01;100.00;99931.92;1694344;83;21581;-59
2022/11/20 08:57:39;;;;;;;16.00;12.45;;;;;;;2.05;100.00;99928.00;1695926;83;22181;-59
2022/11/20 09:00:07;;;;;;;12.43;10.20;;;;;;;2.10;100.00;99929.30;1694591;83;21574;-59
2022/11/20 09:02:35;;;;;;;13.85;10.95;;;;;;;2.09;100.00;99931.05;1695625;83;21528;-59
2022/11/20 09:05:02;;;;;;;11.80;10.53;;;;;;;2.09;100.00;99930.16;1695468;83;21829;-62
2022/11/20 09:07:30;;;;;;;13.45;11.15;;;;;;;2.09;100.00;99924.97;1694348;83;21584;-61
2022/11/20 09:09:56;;;;;;;14.65;11.28;;;;;;;2.11;100.00;99919.34;1692220;83;21608;-61
2022/11/20 09:12:23;;;;;;;12.18;10.70;;;;;;;2.12;100.00;99918.04;1696240;83;21533;-60
2022/11/20 09:14:51;;;;;;;11.48;10.28;;;;;;;2.16;100.00;99926.67;1693740;83;27304;-58
2022/11/20 09:17:18;;;;;;;12.07;10.18;;;;;;;2.18;100.00;99921.05;1683888;83;22029;-59
2022/11/20 09:19:46;;;;;;;14.15;11.12;;;;;;;2.16;100.00;99921.93;1688247;83;21521;-60
2022/11/20 09:22:14;;;;;;;12.90;10.35;;;;;;;2.16;100.00;99922.78;1698620;83;21498;-60
2022/11/20 09:24:42;;;;;;;12.95;11.55;;;;;;;2.17;100.00;99914.56;1691187;83;21030;-59
2022/11/20 09:27:09;;;;;;;13.85;10.45;;;;;;;2.17;100.00;99910.26;1694847;83;21545;-59
2022/11/20 09:29:36;;;;;;;13.83;11.20;;;;;;;2.12;100.00;99905.06;1703919;82;21999;-59
2022/11/20 09:32:03;;;;;;;11.70;10.00;;;;;;;2.14;100.00;99903.33;1741293;81;21518;-59
2022/11/20 09:34:31;;;;;;;12.65;11.30;;;;;;;2.19;100.00;99898.14;1743861;81;21915;-61
2022/11/20 09:36:58;;;;;;;11.78;10.50;;;;;;;2.24;100.00;99891.20;1747603;81;21580;-59
2022/11/20 09:39:25;;;;;;;13.32;10.85;;;;;;;2.28;100.00;99885.53;1742647;81;21633;-58
2022/11/20 09:42:22;;;;;;;12.47;11.18;;;;;;;2.30;100.00;99882.08;1744755;81;21883;-58
2022/11/20 09:45:05;;;;;;;13.35;10.90;;;;;;;2.28;100.00;99881.64;1741000;81;21419;-57
2022/11/20 09:48:02;;;;;;;11.78;9.78;;;;;;;2.26;100.00;99885.56;1745913;81;21482;-58
2022/11/20 09:50:35;;;;;;;11.90;10.32;;;;;;;2.28;100.00;99873.45;1731170;81;22375;-58
2022/11/20 09:53:28;;;;;;;11.65;10.40;;;;;;;2.29;100.00;99866.07;1740698;81;21533;-58
2022/11/20 09:55:55;;;;;;;10.88;9.75;;;;;;;2.29;100.00;99863.47;1736117;81;21804;-59
2022/11/20 09:58:36;;;;;;;12.23;10.85;;;;;;;2.33;100.00;99856.53;1741341;81;21447;-60
2022/11/20 10:01:21;;;;;;;12.30;10.95;;;;;;;2.35;100.00;99858.69;1745040;81;21601;-60
2022/11/20 10:04:05;;;;;;;12.20;10.40;;;;;;;2.40;100.00;99848.30;1741909;81;21508;-60
2022/11/20 10:06:48;;;;;;;10.98;9.88;;;;;;;2.44;100.00;99848.70;1733365;81;21490;-60
2022/11/20 14:09:52;;;;;;;11.20;9.70;;;;;;;-1.61;100.00;99686.42;1790929;77;23051;-59
2022/11/20 14:12:23;;;;;;;11.35;10.18;;;;;;;-0.97;100.00;99690.67;1768688;79;21458;-60
2022/11/20 14:14:53;;;;;;;12.28;11.03;;;;;;;-0.71;100.00;99680.45;1763996;79;20914;-61
2022/11/20 14:17:34;;;;;;;12.55;11.03;;;;;;;-0.50;100.00;99686.11;1763906;80;21442;-61
2022/11/20 14:20:12;;;;;;;10.95;9.83;;;;;;;-0.38;100.00;99681.40;1758074;79;21519;-59
2022/11/20 14:26:44;;;;;;;9.98;8.98;;;;;;;-0.12;100.00;99687.91;1761106;79;21621;-62
2022/11/20 14:29:25;;;;;;;10.18;9.18;;;;;;;0.02;100.00;99683.63;1768211;79;21805;-66
2022/11/20 14:31:53;;;;;;;11.57;10.13;;;;;;;0.16;100.00;99665.08;1762648;80;21611;-65
2022/11/20 14:34:24;;;;;;;10.38;9.38;;;;;;;0.26;100.00;99664.63;1754613;80;20946;-67
2022/11/20 14:36:57;;;;;;;12.07;9.33;;;;;;;0.29;100.00;99667.23;1761678;79;21453;-65
2022/11/20 14:39:31;;;;;;;12.20;9.30;;;;;;;0.32;100.00;99668.53;1776699;79;21502;-67
2022/11/20 14:41:58;;;;;;;9.70;8.78;;;;;;;0.37;100.00;99667.22;1768899;80;21841;-66
2022/11/20 14:44:31;;;;;;;8.95;8.13;;;;;;;0.38;100.00;99651.70;1756419;80;20958;-67
2022/11/20 14:47:00;;;;;;;9.10;8.23;;;;;;;0.64;100.00;99656.39;1739175;80;21478;-66
2022/11/20 14:49:27;;;;;;;9.05;8.08;;;;;;;0.81;100.00;99649.87;1766102;79;20994;-66
2022/11/20 14:52:05;;;;;;;9.60;8.58;;;;;;;0.89;100.00;99633.91;1757174;79;26320;-66
2022/11/20 14:54:33;;;;;;;9.18;8.18;;;;;;;0.92;100.00;99629.99;1766131;80;21802;-66
2022/11/20 14:57:02;;;;;;;9.60;8.65;;;;;;;0.87;100.00;99627.44;1768159;79;21005;-67
2022/11/20 14:59:31;;;;;;;10.48;8.88;;;;;;;0.90;100.00;99630.43;1768444;79;21557;-69
2022/11/20 15:02:05;;;;;;;10.32;8.93;;;;;;;0.92;100.00;99620.52;1755098;80;21533;-66
2022/11/20 15:04:32;;;;;;;10.30;9.18;;;;;;;0.95;100.00;99612.72;1760136;80;21572;-67
2022/11/20 15:06:59;;;;;;;10.80;9.65;;;;;;;0.96;100.00;99608.39;1759500;79;21741;-68
2022/11/20 15:09:26;;;;;;;10.43;9.40;;;;;;;0.94;100.00;99595.48;1749703;80;21408;-67
2022/11/20 15:11:59;;;;;;;10.00;8.90;;;;;;;0.96;100.00;99583.39;1686089;83;21635;-65
2022/11/20 15:14:27;;;;;;;10.15;8.63;;;;;;;0.96;100.00;99587.27;1734777;80;21167;-66
2022/11/20 15:16:54;;;;;;;9.83;8.83;;;;;;;0.93;100.00;99582.53;1696151;82;21400;-64
2022/11/20 15:19:23;;;;;;;9.27;8.37;;;;;;;0.93;100.00;99587.72;1734431;80;21778;-66
2022/11/20 15:21:50;;;;;;;9.48;8.48;;;;;;;0.90;100.00;99580.80;1729942;80;21533;-66
2022/11/20 15:24:18;;;;;;;9.28;8.30;;;;;;;0.87;100.00;99576.95;1731715;80;21660;-67
2022/11/20 15:26:45;;;;;;;10.43;8.70;;;;;;;0.90;100.00;99569.15;1730326;80;21536;-67
2022/11/20 15:29:14;;;;;;;9.78;8.75;;;;;;;0.94;100.00;99568.70;1723108;80;21845;-65
2022/11/20 15:31:43;;;;;;;8.95;8.13;;;;;;;0.95;100.00;99568.70;1732378;80;21767;-66
2022/11/20 15:34:12;;;;;;;9.15;8.23;;;;;;;0.89;100.00;99576.51;1740884;80;21562;-66